sensor_id;sensor_type;location;lat;lon;timestamp;P1;durP1;ratioP1;P2;durP2;ratioP2
2049;SDS011;8478;49.208;8.806;2022-12-11T00:02:00;20.93;;;19.03;;
2049;SDS011;8478;49.208;8.806;2022-12-11T00:04:25;20.23;;;18.37;;
2049;SDS011;8478;49.208;8.806;2022-12-11T00:06:51;19.47;;;17.67;;
2049;SDS011;8478;49.208;8.806;2022-12-11T00:09:18;21.10;;;19.03;;
2049;SDS011;8478;49.208;8.806;2022-12-11T00:11:44;19.27;;;17.47;;
2049;SDS011;8478;49.208;8.806;2022-12-11T00:14:11;20.20;;;18.17;;
2049;SDS011;8478;49.208;8.806;2022-12-11T00:16:37;19.37;;;17.40;;
2049;SDS011;8478;49.208;8.806;2022-12-11T00:19:03;20.20;;;18.07;;
2049;SDS011;8478;49.208;8.806;2022-12-11T00:21:30;19.33;;;17.60;;
2049;SDS011;8478;49.208;8.806;2022-12-11T00:23:56;19.27;;;17.37;;
2049;SDS011;8478;49.208;8.806;2022-12-11T00:26:22;21.37;;;19.13;;
2049;SDS011;8478;49.208;8.806;2022-12-11T00:28:50;19.53;;;17.53;;
2049;SDS011;8478;49.208;8.806;2022-12-11T00:31:18;21.23;;;19.23;;
2049;SDS011;8478;49.208;8.806;2022-12-11T00:33:45;18.60;;;16.77;;
2049;SDS011;8478;49.208;8.806;2022-12-11T00:36:24;22.30;;;19.97;;
2049;SDS011;8478;49.208;8.806;2022-12-11T00:38:51;21.90;;;19.57;;
2049;SDS011;8478;49.208;8.806;2022-12-11T00:41:18;22.03;;;19.80;;
2049;SDS011;8478;49.208;8.806;2022-12-11T00:43:44;21.03;;;19.07;;
2049;SDS011;8478;49.208;8.806;2022-12-11T00:46:10;19.27;;;17.40;;
2049;SDS011;8478;49.208;8.806;2022-12-11T00:48:36;19.47;;;17.67;;
2049;SDS011;8478;49.208;8.806;2022-12-11T00:51:01;20.60;;;18.57;;
2049;SDS011;8478;49.208;8.806;2022-12-11T00:53:27;21.17;;;18.10;;
2049;SDS011;8478;49.208;8.806;2022-12-11T00:55:53;19.23;;;17.33;;
2049;SDS011;8478;49.208;8.806;2022-12-11T00:58:19;20.53;;;18.50;;
2049;SDS011;8478;49.208;8.806;2022-12-11T01:00:44;19.97;;;18.07;;
2049;SDS011;8478;49.208;8.806;2022-12-11T01:03:12;20.17;;;18.30;;
2049;SDS011;8478;49.208;8.806;2022-12-11T01:05:39;18.83;;;16.87;;
2049;SDS011;8478;49.208;8.806;2022-12-11T01:08:05;20.10;;;18.10;;
2049;SDS011;8478;49.208;8.806;2022-12-11T01:10:31;20.60;;;18.70;;
2049;SDS011;8478;49.208;8.806;2022-12-11T01:12:59;19.10;;;17.13;;
2049;SDS011;8478;49.208;8.806;2022-12-11T01:15:37;22.20;;;19.90;;
2049;SDS011;8478;49.208;8.806;2022-12-11T01:18:04;20.00;;;18.20;;
2049;SDS011;8478;49.208;8.806;2022-12-11T01:20:30;21.77;;;19.77;;
2049;SDS011;8478;49.208;8.806;2022-12-11T01:22:57;19.60;;;17.87;;
2049;SDS011;8478;49.208;8.806;2022-12-11T01:25:24;19.00;;;17.40;;
2049;SDS011;8478;49.208;8.806;2022-12-11T01:27:51;19.00;;;17.30;;
2049;SDS011;8478;49.208;8.806;2022-12-11T01:30:19;20.23;;;18.33;;
2049;SDS011;8478;49.208;8.806;2022-12-11T01:32:47;20.50;;;18.50;;
2049;SDS011;8478;49.208;8.806;2022-12-11T01:35:13;18.23;;;16.50;;
2049;SDS011;8478;49.208;8.806;2022-12-11T01:37:39;20.80;;;18.83;;
2049;SDS011;8478;49.208;8.806;2022-12-11T01:40:05;19.77;;;18.00;;
2049;SDS011;8478;49.208;8.806;2022-12-11T01:42:32;20.23;;;18.33;;
2049;SDS011;8478;49.208;8.806;2022-12-11T01:47:49;19.13;;;17.40;;
2049;SDS011;8478;49.208;8.806;2022-12-11T01:50:20;20.70;;;18.73;;
2049;SDS011;8478;49.208;8.806;2022-12-11T01:52:46;21.27;;;19.17;;
2049;SDS011;8478;49.208;8.806;2022-12-11T01:55:14;22.30;;;20.13;;
2049;SDS011;8478;49.208;8.806;2022-12-11T01:57:42;23.97;;;21.70;;
2049;SDS011;8478;49.208;8.806;2022-12-11T02:00:11;23.37;;;21.13;;
2049;SDS011;8478;49.208;8.806;2022-12-11T02:02:37;24.60;;;22.17;;
2049;SDS011;8478;49.208;8.806;2022-12-11T02:05:04;22.90;;;20.70;;
2049;SDS011;8478;49.208;8.806;2022-12-11T02:07:34;24.20;;;21.80;;
2049;SDS011;8478;49.208;8.806;2022-12-11T02:10:04;23.30;;;20.93;;
2049;SDS011;8478;49.208;8.806;2022-12-11T02:15:49;22.83;;;20.70;;
2049;SDS011;8478;49.208;8.806;2022-12-11T02:18:38;23.23;;;21.03;;
2049;SDS011;8478;49.208;8.806;2022-12-11T02:21:11;24.13;;;21.70;;
2049;SDS011;8478;49.208;8.806;2022-12-11T02:24:06;23.73;;;21.60;;
2049;SDS011;8478;49.208;8.806;2022-12-11T02:26:47;22.20;;;20.00;;
2049;SDS011;8478;49.208;8.806;2022-12-11T02:29:35;24.17;;;21.80;;
2049;SDS011;8478;49.208;8.806;2022-12-11T02:32:09;24.13;;;21.83;;
2049;SDS011;8478;49.208;8.806;2022-12-11T02:34:41;23.70;;;21.30;;
2049;SDS011;8478;49.208;8.806;2022-12-11T02:37:15;22.83;;;20.83;;
2049;SDS011;8478;49.208;8.806;2022-12-11T02:39:43;22.90;;;20.70;;
2049;SDS011;8478;49.208;8.806;2022-12-11T02:42:10;22.20;;;20.20;;
2049;SDS011;8478;49.208;8.806;2022-12-11T02:44:37;22.10;;;19.90;;
2049;SDS011;8478;49.208;8.806;2022-12-11T02:47:06;21.30;;;19.30;;
2049;SDS011;8478;49.208;8.806;2022-12-11T02:49:35;22.07;;;20.03;;
2049;SDS011;8478;49.208;8.806;2022-12-11T02:52:02;23.47;;;21.37;;
2049;SDS011;8478;49.208;8.806;2022-12-11T02:54:30;23.70;;;21.40;;
2049;SDS011;8478;49.208;8.806;2022-12-11T02:59:43;21.60;;;19.70;;
2049;SDS011;8478;49.208;8.806;2022-12-11T03:02:10;22.37;;;20.17;;
2049;SDS011;8478;49.208;8.806;2022-12-11T03:04:37;23.33;;;21.17;;
2049;SDS011;8478;49.208;8.806;2022-12-11T03:07:05;23.13;;;20.90;;
2049;SDS011;8478;49.208;8.806;2022-12-11T03:09:40;23.33;;;21.10;;
2049;SDS011;8478;49.208;8.806;2022-12-11T03:12:08;23.23;;;20.93;;
2049;SDS011;8478;49.208;8.806;2022-12-11T03:14:36;23.70;;;21.33;;
2049;SDS011;8478;49.208;8.806;2022-12-11T03:19:40;23.17;;;20.97;;
2049;SDS011;8478;49.208;8.806;2022-12-11T03:22:45;23.23;;;21.00;;
2049;SDS011;8478;49.208;8.806;2022-12-11T03:25:22;24.47;;;22.10;;
2049;SDS011;8478;49.208;8.806;2022-12-11T03:27:56;23.00;;;20.80;;
2049;SDS011;8478;49.208;8.806;2022-12-11T03:30:27;22.87;;;20.70;;
2049;SDS011;8478;49.208;8.806;2022-12-11T03:32:57;24.37;;;21.97;;
2049;SDS011;8478;49.208;8.806;2022-12-11T03:35:28;23.70;;;21.30;;
2049;SDS011;8478;49.208;8.806;2022-12-11T03:37:59;22.97;;;20.57;;
2049;SDS011;8478;49.208;8.806;2022-12-11T03:40:30;22.27;;;19.93;;
2049;SDS011;8478;49.208;8.806;2022-12-11T03:42:57;23.87;;;21.47;;
2049;SDS011;8478;49.208;8.806;2022-12-11T03:45:24;23.10;;;20.90;;
2049;SDS011;8478;49.208;8.806;2022-12-11T03:47:52;24.17;;;21.67;;
2049;SDS011;8478;49.208;8.806;2022-12-11T03:50:21;24.40;;;21.90;;
2049;SDS011;8478;49.208;8.806;2022-12-11T03:52:48;23.87;;;21.40;;
2049;SDS011;8478;49.208;8.806;2022-12-11T03:55:16;24.73;;;22.33;;
2049;SDS011;8478;49.208;8.806;2022-12-11T03:57:44;25.00;;;22.40;;
2049;SDS011;8478;49.208;8.806;2022-12-11T04:00:13;23.77;;;20.93;;
2049;SDS011;8478;49.208;8.806;2022-12-11T04:02:42;23.77;;;21.37;;
2049;SDS011;8478;49.208;8.806;2022-12-11T04:05:09;24.20;;;20.67;;
2049;SDS011;8478;49.208;8.806;2022-12-11T04:07:35;21.27;;;19.27;;
2049;SDS011;8478;49.208;8.806;2022-12-11T04:10:01;22.50;;;20.40;;
2049;SDS011;8478;49.208;8.806;2022-12-11T04:12:28;24.40;;;22.10;;
2049;SDS011;8478;49.208;8.806;2022-12-11T04:14:54;23.40;;;20.93;;
2049;SDS011;8478;49.208;8.806;2022-12-11T04:17:26;24.73;;;22.23;;
2049;SDS011;8478;49.208;8.806;2022-12-11T04:20:11;25.47;;;22.87;;
2049;SDS011;8478;49.208;8.806;2022-12-11T04:22:55;22.73;;;20.50;;
2049;SDS011;8478;49.208;8.806;2022-12-11T04:25:39;24.10;;;21.13;;
2049;SDS011;8478;49.208;8.806;2022-12-11T04:28:05;24.43;;;21.87;;
2049;SDS011;8478;49.208;8.806;2022-12-11T04:30:30;26.27;;;23.77;;
2049;SDS011;8478;49.208;8.806;2022-12-11T04:32:56;25.40;;;22.80;;
2049;SDS011;8478;49.208;8.806;2022-12-11T04:35:22;25.77;;;23.00;;
2049;SDS011;8478;49.208;8.806;2022-12-11T04:37:47;25.60;;;23.03;;
2049;SDS011;8478;49.208;8.806;2022-12-11T04:40:14;24.20;;;21.97;;
2049;SDS011;8478;49.208;8.806;2022-12-11T04:42:42;25.67;;;23.20;;
2049;SDS011;8478;49.208;8.806;2022-12-11T04:45:08;25.47;;;22.90;;
2049;SDS011;8478;49.208;8.806;2022-12-11T04:47:35;26.43;;;23.77;;
2049;SDS011;8478;49.208;8.806;2022-12-11T04:50:02;26.47;;;23.97;;
2049;SDS011;8478;49.208;8.806;2022-12-11T04:52:29;26.13;;;23.63;;
2049;SDS011;8478;49.208;8.806;2022-12-11T04:54:55;24.80;;;22.20;;
2049;SDS011;8478;49.208;8.806;2022-12-11T04:57:21;24.33;;;22.03;;
2049;SDS011;8478;49.208;8.806;2022-12-11T04:59:46;24.60;;;22.10;;
2049;SDS011;8478;49.208;8.806;2022-12-11T05:02:13;26.23;;;23.67;;
2049;SDS011;8478;49.208;8.806;2022-12-11T05:04:39;26.13;;;23.53;;
2049;SDS011;8478;49.208;8.806;2022-12-11T05:07:05;24.60;;;22.27;;
2049;SDS011;8478;49.208;8.806;2022-12-11T05:09:33;28.27;;;24.10;;
2049;SDS011;8478;49.208;8.806;2022-12-11T05:11:59;26.30;;;23.70;;
2049;SDS011;8478;49.208;8.806;2022-12-11T05:14:25;24.70;;;22.20;;
2049;SDS011;8478;49.208;8.806;2022-12-11T05:16:52;24.70;;;22.23;;
2049;SDS011;8478;49.208;8.806;2022-12-11T05:19:17;25.13;;;22.50;;
2049;SDS011;8478;49.208;8.806;2022-12-11T05:21:43;28.83;;;23.60;;
2049;SDS011;8478;49.208;8.806;2022-12-11T05:24:09;25.47;;;22.97;;
2049;SDS011;8478;49.208;8.806;2022-12-11T05:26:35;25.50;;;23.00;;
2049;SDS011;8478;49.208;8.806;2022-12-11T05:29:00;25.70;;;22.97;;
2049;SDS011;8478;49.208;8.806;2022-12-11T05:31:26;26.83;;;24.03;;
2049;SDS011;8478;49.208;8.806;2022-12-11T05:33:52;25.93;;;23.30;;
2049;SDS011;8478;49.208;8.806;2022-12-11T05:36:22;28.53;;;25.60;;
2049;SDS011;8478;49.208;8.806;2022-12-11T05:38:56;26.57;;;23.73;;
2049;SDS011;8478;49.208;8.806;2022-12-11T05:41:27;25.90;;;23.20;;
2049;SDS011;8478;49.208;8.806;2022-12-11T05:43:55;27.33;;;24.47;;
2049;SDS011;8478;49.208;8.806;2022-12-11T05:46:22;26.07;;;23.47;;
2049;SDS011;8478;49.208;8.806;2022-12-11T05:48:50;26.90;;;24.00;;
2049;SDS011;8478;49.208;8.806;2022-12-11T05:51:18;24.97;;;22.47;;
2049;SDS011;8478;49.208;8.806;2022-12-11T05:53:45;25.00;;;22.33;;
2049;SDS011;8478;49.208;8.806;2022-12-11T05:56:14;25.87;;;22.97;;
2049;SDS011;8478;49.208;8.806;2022-12-11T05:58:41;23.20;;;20.93;;
2049;SDS011;8478;49.208;8.806;2022-12-11T06:01:18;23.63;;;21.30;;
2049;SDS011;8478;49.208;8.806;2022-12-11T06:03:46;26.23;;;23.50;;
2049;SDS011;8478;49.208;8.806;2022-12-11T06:06:12;24.27;;;21.67;;
2049;SDS011;8478;49.208;8.806;2022-12-11T06:08:38;22.90;;;20.50;;
2049;SDS011;8478;49.208;8.806;2022-12-11T06:11:05;23.50;;;21.17;;
2049;SDS011;8478;49.208;8.806;2022-12-11T06:13:31;24.80;;;22.20;;
2049;SDS011;8478;49.208;8.806;2022-12-11T06:16:01;24.43;;;21.60;;
2049;SDS011;8478;49.208;8.806;2022-12-11T06:18:27;24.90;;;22.37;;
2049;SDS011;8478;49.208;8.806;2022-12-11T06:20:54;26.00;;;22.63;;
2049;SDS011;8478;49.208;8.806;2022-12-11T06:23:19;22.97;;;20.53;;
2049;SDS011;8478;49.208;8.806;2022-12-11T06:25:45;23.53;;;21.03;;
2049;SDS011;8478;49.208;8.806;2022-12-11T06:28:11;22.57;;;20.17;;
2049;SDS011;8478;49.208;8.806;2022-12-11T06:30:36;23.07;;;20.73;;
2049;SDS011;8478;49.208;8.806;2022-12-11T06:33:02;23.63;;;21.20;;
2049;SDS011;8478;49.208;8.806;2022-12-11T06:35:28;23.37;;;20.30;;
2049;SDS011;8478;49.208;8.806;2022-12-11T06:37:54;24.77;;;22.33;;
2049;SDS011;8478;49.208;8.806;2022-12-11T06:40:20;24.07;;;21.60;;
2049;SDS011;8478;49.208;8.806;2022-12-11T06:42:46;24.70;;;22.10;;
2049;SDS011;8478;49.208;8.806;2022-12-11T06:45:12;24.03;;;21.43;;
2049;SDS011;8478;49.208;8.806;2022-12-11T06:47:37;23.73;;;21.37;;
2049;SDS011;8478;49.208;8.806;2022-12-11T06:50:03;24.50;;;21.90;;
2049;SDS011;8478;49.208;8.806;2022-12-11T06:52:29;24.97;;;21.27;;
2049;SDS011;8478;49.208;8.806;2022-12-11T06:54:55;22.80;;;20.50;;
2049;SDS011;8478;49.208;8.806;2022-12-11T06:57:21;24.20;;;21.80;;
2049;SDS011;8478;49.208;8.806;2022-12-11T06:59:47;22.67;;;20.40;;
2049;SDS011;8478;49.208;8.806;2022-12-11T07:02:13;22.27;;;20.07;;
2049;SDS011;8478;49.208;8.806;2022-12-11T07:04:40;23.67;;;21.20;;
2049;SDS011;8478;49.208;8.806;2022-12-11T07:07:06;24.63;;;22.00;;
2049;SDS011;8478;49.208;8.806;2022-12-11T07:09:32;23.50;;;21.00;;
2049;SDS011;8478;49.208;8.806;2022-12-11T07:11:58;24.20;;;21.67;;
2049;SDS011;8478;49.208;8.806;2022-12-11T07:14:24;24.37;;;21.77;;
2049;SDS011;8478;49.208;8.806;2022-12-11T07:16:50;23.30;;;21.03;;
2049;SDS011;8478;49.208;8.806;2022-12-11T07:19:15;23.90;;;21.33;;
2049;SDS011;8478;49.208;8.806;2022-12-11T07:21:41;21.90;;;19.70;;
2049;SDS011;8478;49.208;8.806;2022-12-11T07:24:07;23.63;;;19.50;;
2049;SDS011;8478;49.208;8.806;2022-12-11T07:26:33;23.87;;;21.10;;
2049;SDS011;8478;49.208;8.806;2022-12-11T07:28:59;23.20;;;20.90;;
2049;SDS011;8478;49.208;8.806;2022-12-11T07:31:25;23.30;;;21.10;;
2049;SDS011;8478;49.208;8.806;2022-12-11T07:33:53;23.00;;;20.60;;
2049;SDS011;8478;49.208;8.806;2022-12-11T07:36:20;23.47;;;21.07;;
2049;SDS011;8478;49.208;8.806;2022-12-11T07:38:46;23.50;;;20.37;;
2049;SDS011;8478;49.208;8.806;2022-12-11T07:41:13;23.03;;;20.73;;
2049;SDS011;8478;49.208;8.806;2022-12-11T07:43:40;22.43;;;20.23;;
2049;SDS011;8478;49.208;8.806;2022-12-11T07:46:07;24.53;;;22.00;;
2049;SDS011;8478;49.208;8.806;2022-12-11T07:48:37;22.17;;;19.87;;
2049;SDS011;8478;49.208;8.806;2022-12-11T07:51:10;23.90;;;21.10;;
2049;SDS011;8478;49.208;8.806;2022-12-11T07:53:39;25.10;;;21.90;;
2049;SDS011;8478;49.208;8.806;2022-12-11T07:56:05;23.57;;;21.27;;
2049;SDS011;8478;49.208;8.806;2022-12-11T07:58:31;21.93;;;19.87;;
2049;SDS011;8478;49.208;8.806;2022-12-11T08:00:57;21.97;;;19.77;;
2049;SDS011;8478;49.208;8.806;2022-12-11T08:03:23;27.63;;;20.53;;
2049;SDS011;8478;49.208;8.806;2022-12-11T08:05:49;23.63;;;21.30;;
2049;SDS011;8478;49.208;8.806;2022-12-11T08:08:16;23.77;;;20.50;;
2049;SDS011;8478;49.208;8.806;2022-12-11T08:10:42;21.83;;;19.53;;
2049;SDS011;8478;49.208;8.806;2022-12-11T08:13:08;22.20;;;19.90;;
2049;SDS011;8478;49.208;8.806;2022-12-11T08:15:35;23.13;;;20.73;;
2049;SDS011;8478;49.208;8.806;2022-12-11T08:18:01;22.90;;;20.43;;
2049;SDS011;8478;49.208;8.806;2022-12-11T08:20:26;21.13;;;18.83;;
2049;SDS011;8478;49.208;8.806;2022-12-11T08:22:52;21.17;;;18.97;;
2049;SDS011;8478;49.208;8.806;2022-12-11T08:25:18;19.57;;;17.53;;
2049;SDS011;8478;49.208;8.806;2022-12-11T08:27:43;21.80;;;19.40;;
2049;SDS011;8478;49.208;8.806;2022-12-11T08:30:09;20.57;;;18.57;;
2049;SDS011;8478;49.208;8.806;2022-12-11T08:32:35;20.30;;;18.30;;
2049;SDS011;8478;49.208;8.806;2022-12-11T08:35:01;21.67;;;19.47;;
2049;SDS011;8478;49.208;8.806;2022-12-11T08:37:27;20.90;;;18.77;;
2049;SDS011;8478;49.208;8.806;2022-12-11T08:39:53;20.70;;;18.00;;
2049;SDS011;8478;49.208;8.806;2022-12-11T08:42:19;21.20;;;17.27;;
2049;SDS011;8478;49.208;8.806;2022-12-11T08:44:45;20.67;;;18.50;;
2049;SDS011;8478;49.208;8.806;2022-12-11T08:47:11;20.23;;;17.63;;
2049;SDS011;8478;49.208;8.806;2022-12-11T08:49:36;20.07;;;18.07;;
2049;SDS011;8478;49.208;8.806;2022-12-11T08:52:03;21.90;;;19.50;;
2049;SDS011;8478;49.208;8.806;2022-12-11T08:54:28;18.60;;;16.70;;
2049;SDS011;8478;49.208;8.806;2022-12-11T08:56:55;20.13;;;18.20;;
2049;SDS011;8478;49.208;8.806;2022-12-11T08:59:21;20.57;;;18.40;;
2049;SDS011;8478;49.208;8.806;2022-12-11T09:01:47;19.47;;;17.57;;
2049;SDS011;8478;49.208;8.806;2022-12-11T09:04:13;22.10;;;19.73;;
2049;SDS011;8478;49.208;8.806;2022-12-11T09:06:38;21.57;;;18.37;;
2049;SDS011;8478;49.208;8.806;2022-12-11T09:09:04;21.00;;;17.80;;
2049;SDS011;8478;49.208;8.806;2022-12-11T09:11:31;19.37;;;17.27;;
2049;SDS011;8478;49.208;8.806;2022-12-11T09:13:58;20.87;;;18.77;;
2049;SDS011;8478;49.208;8.806;2022-12-11T09:16:25;19.33;;;17.53;;
2049;SDS011;8478;49.208;8.806;2022-12-11T09:18:53;20.63;;;18.57;;
2049;SDS011;8478;49.208;8.806;2022-12-11T09:21:21;19.13;;;17.33;;
2049;SDS011;8478;49.208;8.806;2022-12-11T09:23:51;21.53;;;19.33;;
2049;SDS011;8478;49.208;8.806;2022-12-11T09:26:18;21.10;;;18.07;;
2049;SDS011;8478;49.208;8.806;2022-12-11T09:28:44;20.20;;;18.07;;
2049;SDS011;8478;49.208;8.806;2022-12-11T09:31:11;20.10;;;18.03;;
2049;SDS011;8478;49.208;8.806;2022-12-11T09:33:37;22.27;;;20.07;;
2049;SDS011;8478;49.208;8.806;2022-12-11T09:36:03;22.10;;;19.80;;
2049;SDS011;8478;49.208;8.806;2022-12-11T09:38:30;19.30;;;17.17;;
2049;SDS011;8478;49.208;8.806;2022-12-11T09:40:56;20.30;;;17.67;;
2049;SDS011;8478;49.208;8.806;2022-12-11T09:45:51;28.03;;;23.10;;
2049;SDS011;8478;49.208;8.806;2022-12-11T09:48:19;27.60;;;23.43;;
2049;SDS011;8478;49.208;8.806;2022-12-11T09:50:49;26.27;;;23.53;;
2049;SDS011;8478;49.208;8.806;2022-12-11T09:53:20;26.17;;;23.53;;
2049;SDS011;8478;49.208;8.806;2022-12-11T09:58:47;29.13;;;24.40;;
2049;SDS011;8478;49.208;8.806;2022-12-11T10:07:10;28.07;;;23.60;;
2049;SDS011;8478;49.208;8.806;2022-12-11T10:18:15;27.10;;;22.03;;
2049;SDS011;8478;49.208;8.806;2022-12-11T10:20:46;26.60;;;23.13;;
2049;SDS011;8478;49.208;8.806;2022-12-11T10:23:18;28.17;;;23.70;;
2049;SDS011;8478;49.208;8.806;2022-12-11T10:25:53;27.77;;;24.10;;
2049;SDS011;8478;49.208;8.806;2022-12-11T10:28:26;26.13;;;23.33;;
2049;SDS011;8478;49.208;8.806;2022-12-11T10:33:48;25.90;;;21.87;;
2049;SDS011;8478;49.208;8.806;2022-12-11T10:36:30;24.30;;;21.93;;
2049;SDS011;8478;49.208;8.806;2022-12-11T10:39:02;25.00;;;22.40;;
2049;SDS011;8478;49.208;8.806;2022-12-11T10:41:36;22.17;;;19.90;;
2049;SDS011;8478;49.208;8.806;2022-12-11T10:44:25;23.07;;;20.40;;
2049;SDS011;8478;49.208;8.806;2022-12-11T10:47:04;26.83;;;20.27;;
2049;SDS011;8478;49.208;8.806;2022-12-11T10:49:43;24.03;;;20.53;;
2049;SDS011;8478;49.208;8.806;2022-12-11T10:52:21;25.43;;;20.60;;
2049;SDS011;8478;49.208;8.806;2022-12-11T10:58:22;24.33;;;21.20;;
2049;SDS011;8478;49.208;8.806;2022-12-11T11:00:42;24.00;;;19.70;;
2049;SDS011;8478;49.208;8.806;2022-12-11T11:03:21;23.83;;;21.33;;
2049;SDS011;8478;49.208;8.806;2022-12-11T11:05:49;24.73;;;21.13;;
2049;SDS011;8478;49.208;8.806;2022-12-11T11:08:26;21.67;;;19.53;;
2049;SDS011;8478;49.208;8.806;2022-12-11T11:10:56;22.37;;;19.23;;
2049;SDS011;8478;49.208;8.806;2022-12-11T11:13:25;20.33;;;18.33;;
2049;SDS011;8478;49.208;8.806;2022-12-11T11:15:59;24.83;;;19.90;;
2049;SDS011;8478;49.208;8.806;2022-12-11T11:18:29;20.33;;;18.20;;
2049;SDS011;8478;49.208;8.806;2022-12-11T11:20:56;20.30;;;18.20;;
2049;SDS011;8478;49.208;8.806;2022-12-11T11:23:22;22.87;;;20.37;;
2049;SDS011;8478;49.208;8.806;2022-12-11T11:25:53;21.20;;;19.00;;
2049;SDS011;8478;49.208;8.806;2022-12-11T11:28:28;21.53;;;19.23;;
2049;SDS011;8478;49.208;8.806;2022-12-11T11:31:00;22.33;;;19.87;;
2049;SDS011;8478;49.208;8.806;2022-12-11T11:33:29;22.77;;;19.87;;
2049;SDS011;8478;49.208;8.806;2022-12-11T11:43:50;21.93;;;19.60;;
2049;SDS011;8478;49.208;8.806;2022-12-11T11:52:20;22.87;;;20.03;;
2049;SDS011;8478;49.208;8.806;2022-12-11T12:00:17;21.83;;;18.60;;
2049;SDS011;8478;49.208;8.806;2022-12-11T12:02:47;20.83;;;18.63;;
2049;SDS011;8478;49.208;8.806;2022-12-11T12:05:21;20.70;;;18.50;;
2049;SDS011;8478;49.208;8.806;2022-12-11T12:10:34;21.57;;;19.37;;
2049;SDS011;8478;49.208;8.806;2022-12-11T12:16:39;20.20;;;18.30;;
2049;SDS011;8478;49.208;8.806;2022-12-11T12:19:45;22.40;;;20.10;;
2049;SDS011;8478;49.208;8.806;2022-12-11T12:24:57;21.27;;;18.63;;
2049;SDS011;8478;49.208;8.806;2022-12-11T12:27:47;22.27;;;19.87;;
2049;SDS011;8478;49.208;8.806;2022-12-11T12:30:18;20.90;;;18.70;;
2049;SDS011;8478;49.208;8.806;2022-12-11T12:35:32;22.27;;;20.00;;
2049;SDS011;8478;49.208;8.806;2022-12-11T12:43:08;18.90;;;16.90;;
2049;SDS011;8478;49.208;8.806;2022-12-11T12:45:47;19.10;;;17.10;;
2049;SDS011;8478;49.208;8.806;2022-12-11T12:48:19;21.77;;;18.70;;
2049;SDS011;8478;49.208;8.806;2022-12-11T12:50:47;22.67;;;19.60;;
2049;SDS011;8478;49.208;8.806;2022-12-11T12:53:18;22.53;;;19.80;;
2049;SDS011;8478;49.208;8.806;2022-12-11T12:55:47;19.50;;;17.63;;
2049;SDS011;8478;49.208;8.806;2022-12-11T12:58:29;21.50;;;19.33;;
2049;SDS011;8478;49.208;8.806;2022-12-11T13:06:30;21.77;;;19.47;;
2049;SDS011;8478;49.208;8.806;2022-12-11T13:09:24;23.00;;;20.10;;
2049;SDS011;8478;49.208;8.806;2022-12-11T13:11:53;21.50;;;19.40;;
2049;SDS011;8478;49.208;8.806;2022-12-11T13:14:31;21.33;;;19.10;;
2049;SDS011;8478;49.208;8.806;2022-12-11T13:17:33;20.23;;;18.13;;
2049;SDS011;8478;49.208;8.806;2022-12-11T13:20:15;19.97;;;17.97;;
2049;SDS011;8478;49.208;8.806;2022-12-11T13:22:47;21.70;;;19.40;;
2049;SDS011;8478;49.208;8.806;2022-12-11T13:25:18;25.90;;;21.23;;
2049;SDS011;8478;49.208;8.806;2022-12-11T13:27:49;25.30;;;20.83;;
2049;SDS011;8478;49.208;8.806;2022-12-11T13:32:41;22.50;;;20.17;;
2049;SDS011;8478;49.208;8.806;2022-12-11T13:35:14;20.50;;;16.20;;
2049;SDS011;8478;49.208;8.806;2022-12-11T13:37:42;29.63;;;22.70;;
2049;SDS011;8478;49.208;8.806;2022-12-11T13:45:38;22.37;;;19.93;;
2049;SDS011;8478;49.208;8.806;2022-12-11T13:48:31;22.53;;;19.10;;
2049;SDS011;8478;49.208;8.806;2022-12-11T13:51:01;21.30;;;18.20;;
2049;SDS011;8478;49.208;8.806;2022-12-11T13:53:27;22.30;;;19.97;;
2049;SDS011;8478;49.208;8.806;2022-12-11T13:56:04;23.67;;;20.17;;
2049;SDS011;8478;49.208;8.806;2022-12-11T13:58:36;21.57;;;19.27;;
2049;SDS011;8478;49.208;8.806;2022-12-11T14:01:07;21.10;;;18.87;;
2049;SDS011;8478;49.208;8.806;2022-12-11T14:03:40;20.83;;;18.90;;
2049;SDS011;8478;49.208;8.806;2022-12-11T14:06:15;19.13;;;17.10;;
2049;SDS011;8478;49.208;8.806;2022-12-11T14:08:42;22.37;;;20.00;;
2049;SDS011;8478;49.208;8.806;2022-12-11T14:11:14;20.37;;;18.27;;
2049;SDS011;8478;49.208;8.806;2022-12-11T14:13:54;22.07;;;19.87;;
2049;SDS011;8478;49.208;8.806;2022-12-11T14:16:23;20.87;;;18.80;;
2049;SDS011;8478;49.208;8.806;2022-12-11T14:18:50;22.43;;;19.27;;
2049;SDS011;8478;49.208;8.806;2022-12-11T14:21:18;19.10;;;17.20;;
2049;SDS011;8478;49.208;8.806;2022-12-11T14:23:50;21.37;;;19.20;;
2049;SDS011;8478;49.208;8.806;2022-12-11T14:26:19;20.97;;;18.77;;
2049;SDS011;8478;49.208;8.806;2022-12-11T14:28:47;21.43;;;18.77;;
2049;SDS011;8478;49.208;8.806;2022-12-11T14:31:13;20.93;;;18.70;;
2049;SDS011;8478;49.208;8.806;2022-12-11T14:33:43;22.30;;;20.00;;
2049;SDS011;8478;49.208;8.806;2022-12-11T14:36:13;22.23;;;19.93;;
2049;SDS011;8478;49.208;8.806;2022-12-11T14:38:42;21.67;;;19.47;;
2049;SDS011;8478;49.208;8.806;2022-12-11T14:41:18;20.80;;;18.57;;
2049;SDS011;8478;49.208;8.806;2022-12-11T14:43:50;23.50;;;20.50;;
2049;SDS011;8478;49.208;8.806;2022-12-11T14:46:22;23.67;;;21.27;;
2049;SDS011;8478;49.208;8.806;2022-12-11T14:48:58;23.00;;;20.63;;
2049;SDS011;8478;49.208;8.806;2022-12-11T14:51:28;23.07;;;20.33;;
2049;SDS011;8478;49.208;8.806;2022-12-11T14:53:59;24.43;;;21.70;;
2049;SDS011;8478;49.208;8.806;2022-12-11T14:56:26;23.33;;;20.77;;
2049;SDS011;8478;49.208;8.806;2022-12-11T14:58:55;21.00;;;18.73;;
2049;SDS011;8478;49.208;8.806;2022-12-11T15:01:26;23.67;;;21.30;;
2049;SDS011;8478;49.208;8.806;2022-12-11T15:06:29;22.90;;;20.60;;
2049;SDS011;8478;49.208;8.806;2022-12-11T15:08:57;23.10;;;20.57;;
2049;SDS011;8478;49.208;8.806;2022-12-11T15:11:54;23.83;;;21.23;;
2049;SDS011;8478;49.208;8.806;2022-12-11T15:14:22;22.00;;;19.67;;
2049;SDS011;8478;49.208;8.806;2022-12-11T15:16:49;23.60;;;21.20;;
2049;SDS011;8478;49.208;8.806;2022-12-11T15:19:28;22.47;;;20.27;;
2049;SDS011;8478;49.208;8.806;2022-12-11T15:22:03;23.77;;;21.27;;
2049;SDS011;8478;49.208;8.806;2022-12-11T15:24:37;23.33;;;20.83;;
2049;SDS011;8478;49.208;8.806;2022-12-11T15:32:45;21.90;;;19.70;;
2049;SDS011;8478;49.208;8.806;2022-12-11T15:35:25;24.03;;;21.70;;
2049;SDS011;8478;49.208;8.806;2022-12-11T15:37:52;22.33;;;20.07;;
2049;SDS011;8478;49.208;8.806;2022-12-11T15:40:19;22.33;;;20.10;;
2049;SDS011;8478;49.208;8.806;2022-12-11T15:42:44;21.93;;;19.87;;
2049;SDS011;8478;49.208;8.806;2022-12-11T15:45:15;22.73;;;20.40;;
2049;SDS011;8478;49.208;8.806;2022-12-11T15:47:41;23.63;;;21.13;;
2049;SDS011;8478;49.208;8.806;2022-12-11T15:52:43;23.87;;;20.77;;
2049;SDS011;8478;49.208;8.806;2022-12-11T15:55:10;22.70;;;20.30;;
2049;SDS011;8478;49.208;8.806;2022-12-11T15:57:36;22.63;;;20.27;;
2049;SDS011;8478;49.208;8.806;2022-12-11T16:00:04;22.70;;;20.33;;
2049;SDS011;8478;49.208;8.806;2022-12-11T16:02:30;23.30;;;20.73;;
2049;SDS011;8478;49.208;8.806;2022-12-11T16:04:56;23.23;;;20.80;;
2049;SDS011;8478;49.208;8.806;2022-12-11T16:07:23;28.67;;;22.30;;
2049;SDS011;8478;49.208;8.806;2022-12-11T16:09:50;23.20;;;20.80;;
2049;SDS011;8478;49.208;8.806;2022-12-11T16:12:17;24.20;;;21.80;;
2049;SDS011;8478;49.208;8.806;2022-12-11T16:14:44;24.10;;;21.57;;
2049;SDS011;8478;49.208;8.806;2022-12-11T16:17:11;22.90;;;19.80;;
2049;SDS011;8478;49.208;8.806;2022-12-11T16:19:38;24.00;;;21.57;;
2049;SDS011;8478;49.208;8.806;2022-12-11T16:22:05;24.40;;;21.70;;
2049;SDS011;8478;49.208;8.806;2022-12-11T16:24:33;23.60;;;21.30;;
2049;SDS011;8478;49.208;8.806;2022-12-11T16:26:59;24.63;;;22.03;;
2049;SDS011;8478;49.208;8.806;2022-12-11T16:29:25;23.80;;;21.47;;
2049;SDS011;8478;49.208;8.806;2022-12-11T16:31:51;24.30;;;21.33;;
2049;SDS011;8478;49.208;8.806;2022-12-11T16:34:17;21.87;;;19.57;;
2049;SDS011;8478;49.208;8.806;2022-12-11T16:36:43;22.33;;;20.20;;
2049;SDS011;8478;49.208;8.806;2022-12-11T16:39:10;23.90;;;21.33;;